sensor_id;sensor_type;location;lat;lon;timestamp;P1;durP1;ratioP1;P2;durP2;ratioP2
35330;SDS011;21441;52.190;20.910;2023-11-22T00:02:17;10.10;;;6.60;;
35330;SDS011;21441;52.190;20.910;2023-11-22T00:04:45;8.90;;;5.15;;
35330;SDS011;21441;52.190;20.910;2023-11-22T00:07:12;9.57;;;5.60;;
35330;SDS011;21441;52.190;20.910;2023-11-22T00:09:40;8.65;;;5.93;;
35330;SDS011;21441;52.190;20.910;2023-11-22T00:12:07;9.30;;;6.15;;
35330;SDS011;21441;52.190;20.910;2023-11-22T00:14:35;11.70;;;5.82;;
35330;SDS011;21441;52.190;20.910;2023-11-22T00:17:02;7.40;;;5.65;;
35330;SDS011;21441;52.190;20.910;2023-11-22T00:19:31;8.40;;;5.65;;
35330;SDS011;21441;52.190;20.910;2023-11-22T00:21:58;8.70;;;5.97;;
35330;SDS011;21441;52.190;20.910;2023-11-22T00:24:25;10.27;;;6.47;;
35330;SDS011;21441;52.190;20.910;2023-11-22T00:26:52;8.93;;;5.70;;
35330;SDS011;21441;52.190;20.910;2023-11-22T00:29:19;10.05;;;5.57;;
35330;SDS011;21441;52.190;20.910;2023-11-22T00:31:46;8.57;;;5.38;;
35330;SDS011;21441;52.190;20.910;2023-11-22T00:34:13;9.95;;;5.55;;
35330;SDS011;21441;52.190;20.910;2023-11-22T00:36:41;8.13;;;4.82;;
35330;SDS011;21441;52.190;20.910;2023-11-22T00:39:08;8.48;;;5.22;;
35330;SDS011;21441;52.190;20.910;2023-11-22T00:41:38;8.25;;;6.07;;
35330;SDS011;21441;52.190;20.910;2023-11-22T00:44:05;7.75;;;5.88;;
35330;SDS011;21441;52.190;20.910;2023-11-22T00:46:32;11.45;;;6.47;;
35330;SDS011;21441;52.190;20.910;2023-11-22T00:49:00;8.35;;;5.13;;
35330;SDS011;21441;52.190;20.910;2023-11-22T00:51:26;7.85;;;5.25;;
35330;SDS011;21441;52.190;20.910;2023-11-22T00:53:55;10.50;;;5.90;;
35330;SDS011;21441;52.190;20.910;2023-11-22T00:56:22;8.75;;;5.50;;
35330;SDS011;21441;52.190;20.910;2023-11-22T00:58:49;7.00;;;4.65;;
35330;SDS011;21441;52.190;20.910;2023-11-22T01:01:16;7.22;;;4.97;;
35330;SDS011;21441;52.190;20.910;2023-11-22T01:03:44;9.45;;;5.72;;
35330;SDS011;21441;52.190;20.910;2023-11-22T01:06:12;8.68;;;5.80;;
35330;SDS011;21441;52.190;20.910;2023-11-22T01:08:39;8.38;;;4.95;;
35330;SDS011;21441;52.190;20.910;2023-11-22T01:11:07;7.80;;;4.90;;
35330;SDS011;21441;52.190;20.910;2023-11-22T01:13:34;8.02;;;4.43;;
35330;SDS011;21441;52.190;20.910;2023-11-22T01:16:06;6.95;;;5.22;;
35330;SDS011;21441;52.190;20.910;2023-11-22T01:18:33;6.93;;;4.55;;
35330;SDS011;21441;52.190;20.910;2023-11-22T01:21:00;6.82;;;4.70;;
35330;SDS011;21441;52.190;20.910;2023-11-22T01:23:29;7.68;;;5.03;;
35330;SDS011;21441;52.190;20.910;2023-11-22T01:25:57;6.10;;;4.55;;
35330;SDS011;21441;52.190;20.910;2023-11-22T03:19:14;4.82;;;3.72;;
35330;SDS011;21441;52.190;20.910;2023-11-22T03:21:41;5.97;;;4.22;;
35330;SDS011;21441;52.190;20.910;2023-11-22T03:24:09;6.28;;;3.85;;
35330;SDS011;21441;52.190;20.910;2023-11-22T03:26:36;5.80;;;3.55;;
35330;SDS011;21441;52.190;20.910;2023-11-22T03:29:04;5.30;;;3.92;;
35330;SDS011;21441;52.190;20.910;2023-11-22T03:31:31;6.03;;;4.32;;
35330;SDS011;21441;52.190;20.910;2023-11-22T03:34:00;5.82;;;3.63;;
35330;SDS011;21441;52.190;20.910;2023-11-22T03:36:27;6.28;;;3.67;;
35330;SDS011;21441;52.190;20.910;2023-11-22T03:38:54;5.68;;;3.67;;
35330;SDS011;21441;52.190;20.910;2023-11-22T03:41:21;5.35;;;3.70;;
35330;SDS011;21441;52.190;20.910;2023-11-22T03:43:48;5.72;;;4.05;;
35330;SDS011;21441;52.190;20.910;2023-11-22T03:46:15;4.75;;;3.72;;
35330;SDS011;21441;52.190;20.910;2023-11-22T03:48:42;6.65;;;3.80;;
35330;SDS011;21441;52.190;20.910;2023-11-22T03:51:10;5.72;;;3.97;;
35330;SDS011;21441;52.190;20.910;2023-11-22T03:53:37;4.97;;;3.42;;
35330;SDS011;21441;52.190;20.910;2023-11-22T03:56:05;6.55;;;3.75;;
35330;SDS011;21441;52.190;20.910;2023-11-22T03:58:32;5.68;;;3.80;;
35330;SDS011;21441;52.190;20.910;2023-11-22T04:00:59;5.38;;;3.67;;
35330;SDS011;21441;52.190;20.910;2023-11-22T04:03:28;6.65;;;4.43;;
35330;SDS011;21441;52.190;20.910;2023-11-22T04:05:55;5.22;;;3.95;;
35330;SDS011;21441;52.190;20.910;2023-11-22T04:08:24;6.45;;;3.97;;
35330;SDS011;21441;52.190;20.910;2023-11-22T04:10:52;6.78;;;4.45;;
35330;SDS011;21441;52.190;20.910;2023-11-22T04:13:19;6.88;;;3.63;;
35330;SDS011;21441;52.190;20.910;2023-11-22T04:15:46;7.95;;;4.43;;
35330;SDS011;21441;52.190;20.910;2023-11-22T04:18:13;7.28;;;4.72;;
35330;SDS011;21441;52.190;20.910;2023-11-22T04:20:40;5.07;;;3.65;;
35330;SDS011;21441;52.190;20.910;2023-11-22T04:23:07;8.25;;;4.63;;
35330;SDS011;21441;52.190;20.910;2023-11-22T04:25:37;7.20;;;4.05;;
35330;SDS011;21441;52.190;20.910;2023-11-22T04:28:07;6.78;;;4.15;;
35330;SDS011;21441;52.190;20.910;2023-11-22T04:30:35;5.95;;;4.25;;
35330;SDS011;21441;52.190;20.910;2023-11-22T04:33:02;7.18;;;4.22;;
35330;SDS011;21441;52.190;20.910;2023-11-22T04:35:29;7.88;;;4.82;;
35330;SDS011;21441;52.190;20.910;2023-11-22T04:37:59;9.20;;;4.43;;
35330;SDS011;21441;52.190;20.910;2023-11-22T04:40:26;5.93;;;4.55;;
35330;SDS011;21441;52.190;20.910;2023-11-22T04:42:55;5.75;;;4.25;;
35330;SDS011;21441;52.190;20.910;2023-11-22T04:45:22;7.30;;;4.20;;
35330;SDS011;21441;52.190;20.910;2023-11-22T04:47:49;5.55;;;3.80;;
35330;SDS011;21441;52.190;20.910;2023-11-22T04:50:16;5.93;;;4.13;;
35330;SDS011;21441;52.190;20.910;2023-11-22T04:52:43;5.82;;;4.20;;
35330;SDS011;21441;52.190;20.910;2023-11-22T04:55:11;7.30;;;4.15;;
35330;SDS011;21441;52.190;20.910;2023-11-22T04:57:38;6.18;;;4.05;;
35330;SDS011;21441;52.190;20.910;2023-11-22T05:00:08;6.82;;;3.67;;
35330;SDS011;21441;52.190;20.910;2023-11-22T05:02:36;6.10;;;4.18;;
35330;SDS011;21441;52.190;20.910;2023-11-22T05:05:03;5.95;;;3.97;;
35330;SDS011;21441;52.190;20.910;2023-11-22T05:07:30;6.22;;;3.78;;
35330;SDS011;21441;52.190;20.910;2023-11-22T05:09:57;6.32;;;3.22;;
35330;SDS011;21441;52.190;20.910;2023-11-22T05:12:24;6.45;;;3.58;;
35330;SDS011;21441;52.190;20.910;2023-11-22T05:14:51;6.70;;;4.25;;
35330;SDS011;21441;52.190;20.910;2023-11-22T05:17:20;7.95;;;4.03;;
35330;SDS011;21441;52.190;20.910;2023-11-22T05:19:47;5.32;;;3.75;;
35330;SDS011;21441;52.190;20.910;2023-11-22T05:22:16;5.90;;;4.00;;
35330;SDS011;21441;52.190;20.910;2023-11-22T05:24:43;4.82;;;3.60;;
35330;SDS011;21441;52.190;20.910;2023-11-22T05:27:10;6.18;;;4.60;;
35330;SDS011;21441;52.190;20.910;2023-11-22T05:29:37;9.18;;;4.20;;
35330;SDS011;21441;52.190;20.910;2023-11-22T05:32:04;6.07;;;4.47;;
35330;SDS011;21441;52.190;20.910;2023-11-22T05:34:34;7.20;;;4.60;;
35330;SDS011;21441;52.190;20.910;2023-11-22T05:37:00;6.82;;;3.92;;
35330;SDS011;21441;52.190;20.910;2023-11-22T05:39:27;6.75;;;4.40;;
35330;SDS011;21441;52.190;20.910;2023-11-22T05:41:54;8.95;;;4.22;;
35330;SDS011;21441;52.190;20.910;2023-11-22T05:44:22;7.35;;;4.82;;
35330;SDS011;21441;52.190;20.910;2023-11-22T05:46:50;8.02;;;4.28;;
35330;SDS011;21441;52.190;20.910;2023-11-22T05:49:20;6.70;;;3.87;;
35330;SDS011;21441;52.190;20.910;2023-11-22T05:51:48;6.07;;;3.97;;
35330;SDS011;21441;52.190;20.910;2023-11-22T05:54:15;4.95;;;3.65;;
35330;SDS011;21441;52.190;20.910;2023-11-22T05:56:43;7.07;;;4.10;;
35330;SDS011;21441;52.190;20.910;2023-11-22T05:59:10;8.88;;;4.30;;
35330;SDS011;21441;52.190;20.910;2023-11-22T06:01:37;9.65;;;4.45;;
35330;SDS011;21441;52.190;20.910;2023-11-22T06:04:06;6.88;;;4.38;;
35330;SDS011;21441;52.190;20.910;2023-11-22T06:06:35;6.60;;;3.97;;
35330;SDS011;21441;52.190;20.910;2023-11-22T06:09:04;7.35;;;4.45;;
35330;SDS011;21441;52.190;20.910;2023-11-22T06:11:32;6.90;;;4.82;;
35330;SDS011;21441;52.190;20.910;2023-11-22T06:14:00;10.18;;;4.60;;
35330;SDS011;21441;52.190;20.910;2023-11-22T06:16:28;6.72;;;3.88;;
35330;SDS011;21441;52.190;20.910;2023-11-22T06:18:55;6.55;;;4.10;;
35330;SDS011;21441;52.190;20.910;2023-11-22T06:21:22;7.57;;;4.50;;
35330;SDS011;21441;52.190;20.910;2023-11-22T06:23:53;9.77;;;4.65;;
35330;SDS011;21441;52.190;20.910;2023-11-22T06:26:22;5.35;;;4.38;;
35330;SDS011;21441;52.190;20.910;2023-11-22T06:28:49;7.82;;;4.90;;
35330;SDS011;21441;52.190;20.910;2023-11-22T06:31:16;5.78;;;3.80;;
35330;SDS011;21441;52.190;20.910;2023-11-22T06:33:43;5.60;;;3.70;;
35330;SDS011;21441;52.190;20.910;2023-11-22T06:36:10;7.22;;;4.18;;
35330;SDS011;21441;52.190;20.910;2023-11-22T06:38:40;8.27;;;4.68;;
35330;SDS011;21441;52.190;20.910;2023-11-22T06:41:07;8.32;;;5.25;;
35330;SDS011;21441;52.190;20.910;2023-11-22T06:43:36;7.55;;;4.93;;
35330;SDS011;21441;52.190;20.910;2023-11-22T06:46:02;7.68;;;4.68;;
35330;SDS011;21441;52.190;20.910;2023-11-22T06:48:31;6.80;;;4.95;;
35330;SDS011;21441;52.190;20.910;2023-11-22T06:50:59;7.75;;;4.80;;
35330;SDS011;21441;52.190;20.910;2023-11-22T06:53:26;9.35;;;5.35;;
35330;SDS011;21441;52.190;20.910;2023-11-22T06:55:53;6.68;;;4.63;;
35330;SDS011;21441;52.190;20.910;2023-11-22T06:58:21;10.98;;;4.90;;
35330;SDS011;21441;52.190;20.910;2023-11-22T07:00:50;7.13;;;4.32;;
35330;SDS011;21441;52.190;20.910;2023-11-22T07:03:17;6.85;;;4.53;;
35330;SDS011;21441;52.190;20.910;2023-11-22T07:05:44;6.97;;;4.80;;
35330;SDS011;21441;52.190;20.910;2023-11-22T07:08:11;7.13;;;4.15;;
35330;SDS011;21441;52.190;20.910;2023-11-22T07:10:41;5.45;;;4.18;;
35330;SDS011;21441;52.190;20.910;2023-11-22T07:13:10;6.65;;;4.15;;
35330;SDS011;21441;52.190;20.910;2023-11-22T07:15:38;5.55;;;3.95;;
35330;SDS011;21441;52.190;20.910;2023-11-22T07:18:07;5.95;;;3.75;;
35330;SDS011;21441;52.190;20.910;2023-11-22T07:20:35;5.63;;;3.58;;
35330;SDS011;21441;52.190;20.910;2023-11-22T07:23:02;8.30;;;4.25;;
35330;SDS011;21441;52.190;20.910;2023-11-22T07:25:30;6.78;;;3.20;;
35330;SDS011;21441;52.190;20.910;2023-11-22T07:27:57;6.13;;;3.85;;
35330;SDS011;21441;52.190;20.910;2023-11-22T07:30:25;5.00;;;3.58;;
35330;SDS011;21441;52.190;20.910;2023-11-22T07:35:26;6.45;;;4.15;;
35330;SDS011;21441;52.190;20.910;2023-11-22T07:37:54;6.70;;;4.57;;
35330;SDS011;21441;52.190;20.910;2023-11-22T07:40:21;4.97;;;4.07;;
35330;SDS011;21441;52.190;20.910;2023-11-22T07:42:49;7.05;;;4.55;;
35330;SDS011;21441;52.190;20.910;2023-11-22T07:45:16;5.63;;;4.20;;
35330;SDS011;21441;52.190;20.910;2023-11-22T07:47:43;6.03;;;4.60;;
35330;SDS011;21441;52.190;20.910;2023-11-22T07:50:12;5.45;;;4.18;;
35330;SDS011;21441;52.190;20.910;2023-11-22T07:52:41;7.95;;;4.57;;
35330;SDS011;21441;52.190;20.910;2023-11-22T07:55:09;5.85;;;4.13;;
35330;SDS011;21441;52.190;20.910;2023-11-22T07:57:37;6.22;;;4.43;;
35330;SDS011;21441;52.190;20.910;2023-11-22T08:00:06;6.28;;;4.45;;
35330;SDS011;21441;52.190;20.910;2023-11-22T08:02:38;6.63;;;4.65;;
35330;SDS011;21441;52.190;20.910;2023-11-22T08:05:05;7.03;;;4.15;;
35330;SDS011;21441;52.190;20.910;2023-11-22T08:07:35;7.93;;;4.40;;
35330;SDS011;21441;52.190;20.910;2023-11-22T08:13:10;6.22;;;4.55;;
35330;SDS011;21441;52.190;20.910;2023-11-22T08:15:38;10.77;;;4.30;;
35330;SDS011;21441;52.190;20.910;2023-11-22T08:18:17;6.30;;;4.20;;
35330;SDS011;21441;52.190;20.910;2023-11-22T08:20:44;7.30;;;4.63;;
35330;SDS011;21441;52.190;20.910;2023-11-22T08:23:11;6.97;;;4.65;;
35330;SDS011;21441;52.190;20.910;2023-11-22T08:25:40;5.60;;;4.15;;
35330;SDS011;21441;52.190;20.910;2023-11-22T08:28:07;4.70;;;3.65;;
35330;SDS011;21441;52.190;20.910;2023-11-22T08:30:34;6.30;;;3.92;;
35330;SDS011;21441;52.190;20.910;2023-11-22T08:33:02;8.57;;;5.18;;
35330;SDS011;21441;52.190;20.910;2023-11-22T08:35:29;6.38;;;4.05;;
35330;SDS011;21441;52.190;20.910;2023-11-22T08:37:57;7.97;;;4.35;;
35330;SDS011;21441;52.190;20.910;2023-11-22T08:40:24;5.55;;;3.47;;
35330;SDS011;21441;52.190;20.910;2023-11-22T08:42:53;6.47;;;3.63;;
35330;SDS011;21441;52.190;20.910;2023-11-22T08:45:20;5.30;;;3.65;;
35330;SDS011;21441;52.190;20.910;2023-11-22T08:47:47;6.05;;;3.70;;
35330;SDS011;21441;52.190;20.910;2023-11-22T08:50:16;5.43;;;3.28;;
35330;SDS011;21441;52.190;20.910;2023-11-22T08:52:43;3.47;;;2.80;;
35330;SDS011;21441;52.190;20.910;2023-11-22T08:55:12;3.83;;;3.22;;
35330;SDS011;21441;52.190;20.910;2023-11-22T08:57:40;5.95;;;3.15;;
35330;SDS011;21441;52.190;20.910;2023-11-22T09:00:09;5.00;;;3.53;;
35330;SDS011;21441;52.190;20.910;2023-11-22T09:02:37;4.28;;;3.42;;
35330;SDS011;21441;52.190;20.910;2023-11-22T09:05:05;4.57;;;3.00;;
35330;SDS011;21441;52.190;20.910;2023-11-22T09:07:34;6.32;;;3.28;;
35330;SDS011;21441;52.190;20.910;2023-11-22T09:10:05;5.00;;;3.22;;
35330;SDS011;21441;52.190;20.910;2023-11-22T09:12:36;5.95;;;3.20;;
35330;SDS011;21441;52.190;20.910;2023-11-22T09:15:05;4.55;;;3.20;;
35330;SDS011;21441;52.190;20.910;2023-11-22T09:17:38;4.80;;;3.10;;
35330;SDS011;21441;52.190;20.910;2023-11-22T09:20:08;4.40;;;3.30;;
35330;SDS011;21441;52.190;20.910;2023-11-22T09:22:41;7.07;;;4.10;;
35330;SDS011;21441;52.190;20.910;2023-11-22T09:25:10;5.82;;;3.92;;
35330;SDS011;21441;52.190;20.910;2023-11-22T09:27:38;5.40;;;3.75;;
35330;SDS011;21441;52.190;20.910;2023-11-22T09:30:07;7.03;;;3.90;;
35330;SDS011;21441;52.190;20.910;2023-11-22T09:32:52;4.05;;;3.58;;
35330;SDS011;21441;52.190;20.910;2023-11-22T09:35:19;4.60;;;3.80;;
35330;SDS011;21441;52.190;20.910;2023-11-22T09:37:47;5.32;;;4.00;;
35330;SDS011;21441;52.190;20.910;2023-11-22T09:40:16;4.53;;;3.58;;
35330;SDS011;21441;52.190;20.910;2023-11-22T09:42:44;4.30;;;3.90;;
35330;SDS011;21441;52.190;20.910;2023-11-22T09:45:16;4.95;;;4.05;;
35330;SDS011;21441;52.190;20.910;2023-11-22T09:47:44;6.40;;;3.95;;
35330;SDS011;21441;52.190;20.910;2023-11-22T09:50:13;6.20;;;4.65;;
35330;SDS011;21441;52.190;20.910;2023-11-22T09:52:45;5.53;;;3.72;;
35330;SDS011;21441;52.190;20.910;2023-11-22T09:55:16;3.88;;;3.53;;
35330;SDS011;21441;52.190;20.910;2023-11-22T09:57:44;8.48;;;4.53;;
35330;SDS011;21441;52.190;20.910;2023-11-22T10:00:12;5.25;;;3.38;;
35330;SDS011;21441;52.190;20.910;2023-11-22T10:02:42;3.67;;;3.15;;
35330;SDS011;21441;52.190;20.910;2023-11-22T10:05:10;4.50;;;3.50;;
35330;SDS011;21441;52.190;20.910;2023-11-22T10:07:39;5.68;;;3.47;;
35330;SDS011;21441;52.190;20.910;2023-11-22T10:10:06;6.72;;;3.60;;
35330;SDS011;21441;52.190;20.910;2023-11-22T10:12:36;4.30;;;3.22;;
35330;SDS011;21441;52.190;20.910;2023-11-22T10:15:12;4.10;;;3.65;;
35330;SDS011;21441;52.190;20.910;2023-11-22T10:17:40;3.00;;;2.65;;
35330;SDS011;21441;52.190;20.910;2023-11-22T10:20:07;4.10;;;3.70;;
35330;SDS011;21441;52.190;20.910;2023-11-22T10:22:45;4.55;;;3.38;;
35330;SDS011;21441;52.190;20.910;2023-11-22T10:25:14;4.03;;;3.63;;
35330;SDS011;21441;52.190;20.910;2023-11-22T10:27:44;4.53;;;3.20;;
35330;SDS011;21441;52.190;20.910;2023-11-22T10:30:12;3.45;;;3.10;;
35330;SDS011;21441;52.190;20.910;2023-11-22T10:32:41;7.50;;;3.90;;
35330;SDS011;21441;52.190;20.910;2023-11-22T10:35:08;4.55;;;3.85;;
35330;SDS011;21441;52.190;20.910;2023-11-22T10:37:35;4.50;;;3.00;;
35330;SDS011;21441;52.190;20.910;2023-11-22T10:40:04;3.58;;;2.95;;
35330;SDS011;21441;52.190;20.910;2023-11-22T10:42:34;5.55;;;3.30;;
35330;SDS011;21441;52.190;20.910;2023-11-22T10:45:03;5.40;;;3.70;;
35330;SDS011;21441;52.190;20.910;2023-11-22T10:47:34;4.68;;;3.83;;
35330;SDS011;21441;52.190;20.910;2023-11-22T10:50:04;4.28;;;3.88;;
35330;SDS011;21441;52.190;20.910;2023-11-22T10:55:04;7.35;;;3.95;;
35330;SDS011;21441;52.190;20.910;2023-11-22T10:57:34;4.22;;;3.83;;
35330;SDS011;21441;52.190;20.910;2023-11-22T11:00:07;5.50;;;4.47;;
35330;SDS011;21441;52.190;20.910;2023-11-22T11:02:40;6.07;;;4.18;;
35330;SDS011;21441;52.190;20.910;2023-11-22T11:05:11;4.55;;;3.50;;
35330;SDS011;21441;52.190;20.910;2023-11-22T11:07:45;4.80;;;3.92;;
35330;SDS011;21441;52.190;20.910;2023-11-22T11:10:19;4.70;;;3.75;;
35330;SDS011;21441;52.190;20.910;2023-11-22T11:12:48;5.45;;;4.10;;
35330;SDS011;21441;52.190;20.910;2023-11-22T11:15:15;5.25;;;4.40;;
35330;SDS011;21441;52.190;20.910;2023-11-22T11:17:44;5.60;;;4.50;;
35330;SDS011;21441;52.190;20.910;2023-11-22T11:20:15;4.90;;;4.13;;
35330;SDS011;21441;52.190;20.910;2023-11-22T11:22:44;6.22;;;4.00;;
35330;SDS011;21441;52.190;20.910;2023-11-22T11:25:13;6.25;;;4.80;;
35330;SDS011;21441;52.190;20.910;2023-11-22T11:27:43;7.90;;;4.05;;
35330;SDS011;21441;52.190;20.910;2023-11-22T11:33:08;5.88;;;4.35;;
35330;SDS011;21441;52.190;20.910;2023-11-22T11:35:40;5.03;;;4.47;;
35330;SDS011;21441;52.190;20.910;2023-11-22T11:38:11;4.55;;;4.13;;
35330;SDS011;21441;52.190;20.910;2023-11-22T11:40:40;5.40;;;4.65;;
35330;SDS011;21441;52.190;20.910;2023-11-22T11:43:09;6.65;;;3.80;;
35330;SDS011;21441;52.190;20.910;2023-11-22T11:45:37;5.07;;;4.53;;
35330;SDS011;21441;52.190;20.910;2023-11-22T11:48:06;7.05;;;4.88;;
35330;SDS011;21441;52.190;20.910;2023-11-22T11:50:33;4.70;;;4.15;;
35330;SDS011;21441;52.190;20.910;2023-11-22T11:53:01;5.10;;;4.35;;
35330;SDS011;21441;52.190;20.910;2023-11-22T11:55:30;7.38;;;5.47;;
35330;SDS011;21441;52.190;20.910;2023-11-22T11:58:05;11.23;;;5.65;;
35330;SDS011;21441;52.190;20.910;2023-11-22T12:00:36;7.03;;;5.13;;
35330;SDS011;21441;52.190;20.910;2023-11-22T12:03:06;6.00;;;4.50;;
35330;SDS011;21441;52.190;20.910;2023-11-22T12:05:36;6.28;;;4.57;;
35330;SDS011;21441;52.190;20.910;2023-11-22T12:08:03;6.57;;;4.32;;
35330;SDS011;21441;52.190;20.910;2023-11-22T12:10:30;6.57;;;4.97;;
35330;SDS011;21441;52.190;20.910;2023-11-22T12:12:57;5.85;;;4.63;;
35330;SDS011;21441;52.190;20.910;2023-11-22T12:15:26;8.02;;;6.00;;
35330;SDS011;21441;52.190;20.910;2023-11-22T12:17:56;6.13;;;5.40;;
35330;SDS011;21441;52.190;20.910;2023-11-22T12:20:23;4.90;;;4.40;;
35330;SDS011;21441;52.190;20.910;2023-11-22T12:22:52;5.60;;;4.22;;
35330;SDS011;21441;52.190;20.910;2023-11-22T12:25:20;11.50;;;9.40;;
35330;SDS011;21441;52.190;20.910;2023-11-22T12:27:47;6.50;;;5.25;;
35330;SDS011;21441;52.190;20.910;2023-11-22T12:30:27;6.97;;;5.43;;
35330;SDS011;21441;52.190;20.910;2023-11-22T12:32:57;6.30;;;5.03;;
35330;SDS011;21441;52.190;20.910;2023-11-22T12:35:28;5.72;;;4.85;;
35330;SDS011;21441;52.190;20.910;2023-11-22T12:37:55;6.60;;;4.70;;
35330;SDS011;21441;52.190;20.910;2023-11-22T12:40:23;6.18;;;4.57;;
35330;SDS011;21441;52.190;20.910;2023-11-22T12:42:50;12.65;;;8.00;;
35330;SDS011;21441;52.190;20.910;2023-11-22T12:45:19;9.48;;;6.88;;
35330;SDS011;21441;52.190;20.910;2023-11-22T12:47:49;11.35;;;6.72;;
35330;SDS011;21441;52.190;20.910;2023-11-22T12:50:30;7.30;;;5.40;;
35330;SDS011;21441;52.190;20.910;2023-11-22T12:53:06;8.88;;;7.07;;
35330;SDS011;21441;52.190;20.910;2023-11-22T12:55:34;7.07;;;5.75;;
35330;SDS011;21441;52.190;20.910;2023-11-22T12:58:01;12.02;;;7.15;;
35330;SDS011;21441;52.190;20.910;2023-11-22T13:00:29;9.10;;;6.43;;
35330;SDS011;21441;52.190;20.910;2023-11-22T13:02:56;7.70;;;6.00;;
35330;SDS011;21441;52.190;20.910;2023-11-22T13:05:24;8.10;;;5.35;;
35330;SDS011;21441;52.190;20.910;2023-11-22T13:07:53;6.25;;;5.07;;
35330;SDS011;21441;52.190;20.910;2023-11-22T13:10:20;11.98;;;6.28;;
35330;SDS011;21441;52.190;20.910;2023-11-22T13:12:51;7.68;;;5.28;;
35330;SDS011;21441;52.190;20.910;2023-11-22T13:15:19;8.25;;;5.80;;
35330;SDS011;21441;52.190;20.910;2023-11-22T13:17:49;9.18;;;5.78;;
35330;SDS011;21441;52.190;20.910;2023-11-22T13:20:21;10.98;;;6.57;;
35330;SDS011;21441;52.190;20.910;2023-11-22T13:22:52;8.90;;;5.45;;
35330;SDS011;21441;52.190;20.910;2023-11-22T13:25:19;10.00;;;6.10;;
35330;SDS011;21441;52.190;20.910;2023-11-22T13:27:47;8.68;;;6.00;;
35330;SDS011;21441;52.190;20.910;2023-11-22T13:30:14;10.77;;;7.05;;
35330;SDS011;21441;52.190;20.910;2023-11-22T13:32:44;10.77;;;8.48;;
35330;SDS011;21441;52.190;20.910;2023-11-22T13:35:12;11.98;;;7.97;;
35330;SDS011;21441;52.190;20.910;2023-11-22T13:37:42;11.10;;;7.60;;
35330;SDS011;21441;52.190;20.910;2023-11-22T13:40:12;12.13;;;7.32;;
35330;SDS011;21441;52.190;20.910;2023-11-22T13:42:43;11.07;;;7.93;;
35330;SDS011;21441;52.190;20.910;2023-11-22T13:45:12;10.75;;;7.45;;
35330;SDS011;21441;52.190;20.910;2023-11-22T13:47:45;8.80;;;6.70;;
35330;SDS011;21441;52.190;20.910;2023-11-22T13:50:14;13.43;;;7.93;;
35330;SDS011;21441;52.190;20.910;2023-11-22T13:52:44;14.77;;;8.02;;
35330;SDS011;21441;52.190;20.910;2023-11-22T13:55:13;12.05;;;7.10;;
35330;SDS011;21441;52.190;20.910;2023-11-22T13:57:41;12.30;;;8.23;;
35330;SDS011;21441;52.190;20.910;2023-11-22T14:00:09;12.10;;;7.57;;
35330;SDS011;21441;52.190;20.910;2023-11-22T14:02:40;10.70;;;7.05;;
35330;SDS011;21441;52.190;20.910;2023-11-22T14:05:08;13.23;;;9.23;;
35330;SDS011;21441;52.190;20.910;2023-11-22T14:07:37;21.75;;;8.90;;
35330;SDS011;21441;52.190;20.910;2023-11-22T14:10:05;12.70;;;7.75;;
35330;SDS011;21441;52.190;20.910;2023-11-22T14:12:35;12.70;;;7.85;;
35330;SDS011;21441;52.190;20.910;2023-11-22T14:15:02;10.40;;;7.03;;
35330;SDS011;21441;52.190;20.910;2023-11-22T14:17:31;11.70;;;7.53;;
35330;SDS011;21441;52.190;20.910;2023-11-22T14:19:58;15.93;;;8.00;;
35330;SDS011;21441;52.190;20.910;2023-11-22T14:22:25;14.75;;;7.72;;
35330;SDS011;21441;52.190;20.910;2023-11-22T14:24:53;11.85;;;8.05;;
35330;SDS011;21441;52.190;20.910;2023-11-22T14:27:20;11.45;;;7.85;;
35330;SDS011;21441;52.190;20.910;2023-11-22T14:29:49;12.10;;;7.57;;
35330;SDS011;21441;52.190;20.910;2023-11-22T14:32:17;13.18;;;7.65;;
35330;SDS011;21441;52.190;20.910;2023-11-22T14:34:46;11.50;;;6.90;;
35330;SDS011;21441;52.190;20.910;2023-11-22T14:37:13;13.20;;;7.68;;
35330;SDS011;21441;52.190;20.910;2023-11-22T14:42:08;11.38;;;6.80;;
35330;SDS011;21441;52.190;20.910;2023-11-22T14:44:37;13.90;;;8.10;;
35330;SDS011;21441;52.190;20.910;2023-11-22T14:47:05;15.10;;;8.23;;
35330;SDS011;21441;52.190;20.910;2023-11-22T14:49:41;13.45;;;8.38;;
35330;SDS011;21441;52.190;20.910;2023-11-22T14:52:08;14.77;;;8.85;;
35330;SDS011;21441;52.190;20.910;2023-11-22T14:54:36;12.95;;;8.23;;
35330;SDS011;21441;52.190;20.910;2023-11-22T14:57:03;15.10;;;7.88;;
35330;SDS011;21441;52.190;20.910;2023-11-22T14:59:33;12.75;;;8.85;;
35330;SDS011;21441;52.190;20.910;2023-11-22T15:01:59;16.83;;;9.23;;
35330;SDS011;21441;52.190;20.910;2023-11-22T15:04:31;18.75;;;8.63;;
35330;SDS011;21441;52.190;20.910;2023-11-22T15:07:01;19.42;;;9.68;;
35330;SDS011;21441;52.190;20.910;2023-11-22T15:09:29;19.05;;;10.13;;
35330;SDS011;21441;52.190;20.910;2023-11-22T15:11:58;16.30;;;10.15;;
35330;SDS011;21441;52.190;20.910;2023-11-22T15:14:25;18.17;;;9.65;;
35330;SDS011;21441;52.190;20.910;2023-11-22T15:16:52;20.08;;;10.75;;
35330;SDS011;21441;52.190;20.910;2023-11-22T15:19:20;19.20;;;11.10;;
35330;SDS011;21441;52.190;20.910;2023-11-22T15:21:51;20.50;;;12.05;;
35330;SDS011;21441;52.190;20.910;2023-11-22T15:24:19;21.42;;;11.88;;
35330;SDS011;21441;52.190;20.910;2023-11-22T15:26:46;21.13;;;12.32;;
35330;SDS011;21441;52.190;20.910;2023-11-22T15:29:13;17.70;;;11.15;;
35330;SDS011;21441;52.190;20.910;2023-11-22T15:31:42;17.98;;;10.93;;
35330;SDS011;21441;52.190;20.910;2023-11-22T15:34:10;18.40;;;10.98;;
35330;SDS011;21441;52.190;20.910;2023-11-22T15:36:37;19.08;;;10.57;;
35330;SDS011;21441;52.190;20.910;2023-11-22T15:39:06;23.45;;;13.48;;
35330;SDS011;21441;52.190;20.910;2023-11-22T15:41:37;21.50;;;12.00;;
35330;SDS011;21441;52.190;20.910;2023-11-22T15:44:05;22.85;;;12.35;;
35330;SDS011;21441;52.190;20.910;2023-11-22T15:46:32;23.45;;;12.85;;
35330;SDS011;21441;52.190;20.910;2023-11-22T15:49:00;27.38;;;12.82;;
35330;SDS011;21441;52.190;20.910;2023-11-22T15:51:27;27.40;;;14.65;;
35330;SDS011;21441;52.190;20.910;2023-11-22T15:53:57;25.33;;;14.85;;
35330;SDS011;21441;52.190;20.910;2023-11-22T15:56:25;26.40;;;15.82;;
35330;SDS011;21441;52.190;20.910;2023-11-22T15:58:53;27.48;;;15.35;;
35330;SDS011;21441;52.190;20.910;2023-11-22T16:01:24;25.48;;;15.15;;
35330;SDS011;21441;52.190;20.910;2023-11-22T16:03:51;25.55;;;15.82;;
35330;SDS011;21441;52.190;20.910;2023-11-22T16:06:18;27.30;;;15.55;;
35330;SDS011;21441;52.190;20.910;2023-11-22T16:08:46;26.15;;;15.43;;
35330;SDS011;21441;52.190;20.910;2023-11-22T16:11:13;28.70;;;16.27;;
35330;SDS011;21441;52.190;20.910;2023-11-22T16:13:43;24.67;;;14.32;;
35330;SDS011;21441;52.190;20.910;2023-11-22T16:16:11;26.60;;;14.27;;
35330;SDS011;21441;52.190;20.910;2023-11-22T16:18:38;21.27;;;13.50;;
35330;SDS011;21441;52.190;20.910;2023-11-22T16:21:06;21.55;;;13.25;;
35330;SDS011;21441;52.190;20.910;2023-11-22T16:23:36;22.30;;;14.60;;
35330;SDS011;21441;52.190;20.910;2023-11-22T16:26:03;28.42;;;14.55;;
35330;SDS011;21441;52.190;20.910;2023-11-22T16:28:31;23.05;;;14.48;;
35330;SDS011;21441;52.190;20.910;2023-11-22T16:31:00;23.25;;;13.45;;
35330;SDS011;21441;52.190;20.910;2023-11-22T16:33:28;20.52;;;12.85;;
35330;SDS011;21441;52.190;20.910;2023-11-22T16:35:55;23.80;;;13.68;;
35330;SDS011;21441;52.190;20.910;2023-11-22T16:38:22;19.75;;;12.88;;
35330;SDS011;21441;52.190;20.910;2023-11-22T16:40:50;27.08;;;13.38;;
35330;SDS011;21441;52.190;20.910;2023-11-22T16:43:18;23.63;;;13.82;;